Parkman, WY (82838)

9:10 PM MDT on July 30, 2014 (GMT -0600)
KWYSHERI2 Elev 3828 ft | 44.81 °N, 106.98 °W | Change Station

Current weather conditions updated 8 minutes ago

Clear
Clear
78.2 °F
Feels Like 78 °F
N
0.0
Wind Variable Wind from ENE
Gusts 0.0 mph

Tomorrow is forecast to be nearly the same temperature as today.

Today
High -- | Low -- °F
--% Chance of Precip.
Yesterday
High -- | Low -- °F
Precip. -- in
5:52 AM 8:38 PM
Waxing Crescent, 15% visible
Pressure 30.20 in
Visibility 10.0 miles
Clouds Clear
Heat Index 78 °F
Dew Point 42 °F
Humidity 27%
Rainfall 0.00 in
Snow Depth Not available.
UV 0 out of 12
Pollen 6.60 out of 12
Air Quality Not available.
Flu Activity Not available.
METAR KSHR 310253Z AUTO 20003KT 10SM CLR 19/11 A3020

More Conditions Fewer Conditions

Pressure 30.20 in
Visibility 10.0 miles
Clouds Clear
Heat Index 78 °F
Dew Point 42 °F
Humidity 27%
Rainfall 0.00 in
Snow Depth Not available.
UV 0 out of 12
Pollen 6.60 out of 12
Air Quality Not available.
Flu Activity Not available.
METAR KSHR 310253Z AUTO 20003KT 10SM CLR 19/11 A3020

More Conditions Fewer Conditions

10-Day Weather Forecast

Almanac

Astronomy

Jul. 30, 2014 Rise Set
Actual Time 5:52 AM MDT 8:38 PM MDT
Civil Twilight 5:18 AM MDT 9:11 PM MDT
Nautical Twilight 4:35 AM MDT 9:54 PM MDT
Astronomical Twilight 3:45 AM MDT 10:44 PM MDT
Moon 9:38 AM MDT (7/30) 10:09 PM MDT (7/30)
Length of Visible Light 15h 53m
Length of Day
14h 45m
Tomorrow will be 2m 22s shorter.
Waxing Crescent, 15% of the Moon is Illuminated
Today
Waxing Crescent
Aug 3
First Quarter
Aug 10
Full
Aug 17
Last Quarter
Aug 25
New

Today's Extremes

State Highs State Lows

Community

WunderPhotos

Upload Photos

1,739,281 photos uploaded!

Nearby

Snow Depth

Station Depth Elevation
Casper Mountain 0 in 7850 ft
Gros Ventre Summit 0 in 8750 ft
Big Sandy Opening 1 in 9080 ft
Phillips Bench 0 in 8200 ft
Blind Bull Summit 1 in 8900 ft

Earthquake Activity

City Distance Mag. Time & Date
No recent earthquake activity has been reported nearby.
Minimum magnitude displayed is 2.5.

Coastal Water Temperatures

Place Temperature
No Stations Reporting

Nearby Weather Stations

Station Location Temp. Heat Index Dew Point Humidity Wind Precip. Elev Updated Type
Sheridan, WY 78.2 °F 78 °F 42 °F 27% ENE  at  0.0 mph 0.00 in / hr 3828 ft 9:02 PM MDT Normal
North Airport Area, Sheridan, WY 69.3 °F - 53 °F 56% NW  at  2.2 mph - / hr 3917 ft 9:00 PM MDT Normal
Sheridan, WY 67.0 °F - 51 °F 57% SW  at  1.0 mph 0.00 in / hr 3860 ft 9:10 PM MDT Rapid Fire
HADS RAPID CREEK (RAIN) NEAR BIG HORN WY, Wolf, WY 63 °F - - - North  at  - 0.00 in / hr 7048 ft 7:30 PM MDT MADIS
RAWS BURGESS WY, Wolf, WY 61 °F - 32 °F 33% East  at  5 mph 0.00 in / hr 7743 ft 8:04 PM MDT MADIS
HADS WEST FORK BIG GOOSE CREEK NEAR B WY, Wolf, WY 57 °F - - - North  at  - 0.00 in / hr 8399 ft 7:45 PM MDT MADIS

Show More Stations Show Fewer Stations